sensor_id;sensor_type;location;lat;lon;timestamp;temperature;humidity
68450;SHT30;67758;39.572;2.652;2023-07-02T00:01:16;23.16;73.09
68450;SHT30;67758;39.572;2.652;2023-07-02T00:03:41;23.12;73.41
68450;SHT30;67758;39.572;2.652;2023-07-02T00:06:07;23.15;73.69
68450;SHT30;67758;39.572;2.652;2023-07-02T00:08:33;23.12;73.83
68450;SHT30;67758;39.572;2.652;2023-07-02T00:11:11;23.12;73.76
68450;SHT30;67758;39.572;2.652;2023-07-02T00:16:55;23.11;74.35
68450;SHT30;67758;39.572;2.652;2023-07-02T00:19:22;23.12;74.29
68450;SHT30;67758;39.572;2.652;2023-07-02T00:21:50;23.08;74.27
68450;SHT30;67758;39.572;2.652;2023-07-02T00:24:20;23.08;74.33
68450;SHT30;67758;39.572;2.652;2023-07-02T00:26:45;23.08;74.68
68450;SHT30;67758;39.572;2.652;2023-07-02T00:29:11;23.09;74.69
68450;SHT30;67758;39.572;2.652;2023-07-02T00:31:37;23.02;74.98
68450;SHT30;67758;39.572;2.652;2023-07-02T00:34:03;22.99;75.10
68450;SHT30;67758;39.572;2.652;2023-07-02T00:36:31;23.15;75.16
68450;SHT30;67758;39.572;2.652;2023-07-02T00:38:57;23.09;75.37
68450;SHT30;67758;39.572;2.652;2023-07-02T00:41:24;23.09;75.53
68450;SHT30;67758;39.572;2.652;2023-07-02T00:43:50;23.06;75.75
68450;SHT30;67758;39.572;2.652;2023-07-02T00:46:20;23.04;76.08
68450;SHT30;67758;39.572;2.652;2023-07-02T00:48:51;22.98;76.35
68450;SHT30;67758;39.572;2.652;2023-07-02T00:51:21;22.92;76.89
68450;SHT30;67758;39.572;2.652;2023-07-02T00:53:48;22.92;76.78
68450;SHT30;67758;39.572;2.652;2023-07-02T00:56:14;22.87;76.77
68450;SHT30;67758;39.572;2.652;2023-07-02T00:58:45;22.84;76.68
68450;SHT30;67758;39.572;2.652;2023-07-02T01:01:16;22.84;76.61
68450;SHT30;67758;39.572;2.652;2023-07-02T01:06:30;22.77;76.77
68450;SHT30;67758;39.572;2.652;2023-07-02T01:08:58;22.74;76.78
68450;SHT30;67758;39.572;2.652;2023-07-02T01:14:01;22.68;76.89
68450;SHT30;67758;39.572;2.652;2023-07-02T01:16:29;22.67;76.98
68450;SHT30;67758;39.572;2.652;2023-07-02T01:19:04;22.67;76.87
68450;SHT30;67758;39.572;2.652;2023-07-02T01:21:31;22.61;77.00
68450;SHT30;67758;39.572;2.652;2023-07-02T01:23:58;22.61;77.20
68450;SHT30;67758;39.572;2.652;2023-07-02T01:26:31;22.64;77.08
68450;SHT30;67758;39.572;2.652;2023-07-02T01:31:39;22.63;77.34
68450;SHT30;67758;39.572;2.652;2023-07-02T01:34:05;22.60;77.33
68450;SHT30;67758;39.572;2.652;2023-07-02T01:36:33;22.57;77.64
68450;SHT30;67758;39.572;2.652;2023-07-02T01:38:59;22.51;77.81
68450;SHT30;67758;39.572;2.652;2023-07-02T01:41:25;22.54;77.80
68450;SHT30;67758;39.572;2.652;2023-07-02T01:43:51;22.51;78.33
68450;SHT30;67758;39.572;2.652;2023-07-02T01:46:17;22.50;78.34
68450;SHT30;67758;39.572;2.652;2023-07-02T01:48:43;22.50;78.63
68450;SHT30;67758;39.572;2.652;2023-07-02T01:51:09;22.47;78.50
68450;SHT30;67758;39.572;2.652;2023-07-02T01:53:35;22.50;78.71
68450;SHT30;67758;39.572;2.652;2023-07-02T01:56:01;22.46;78.77
68450;SHT30;67758;39.572;2.652;2023-07-02T01:58:26;22.53;78.62
68450;SHT30;67758;39.572;2.652;2023-07-02T02:00:52;22.53;78.43
68450;SHT30;67758;39.572;2.652;2023-07-02T02:03:18;22.50;78.35
68450;SHT30;67758;39.572;2.652;2023-07-02T02:05:44;22.55;78.26
68450;SHT30;67758;39.572;2.652;2023-07-02T02:08:10;22.48;78.28
68450;SHT30;67758;39.572;2.652;2023-07-02T02:10:35;22.48;78.38
68450;SHT30;67758;39.572;2.652;2023-07-02T02:13:01;22.46;78.37
68450;SHT30;67758;39.572;2.652;2023-07-02T02:15:27;22.43;78.46
68450;SHT30;67758;39.572;2.652;2023-07-02T02:17:52;22.48;78.58
68450;SHT30;67758;39.572;2.652;2023-07-02T02:20:18;22.47;78.49
68450;SHT30;67758;39.572;2.652;2023-07-02T02:22:44;22.46;78.58
68450;SHT30;67758;39.572;2.652;2023-07-02T02:25:10;22.47;78.64
68450;SHT30;67758;39.572;2.652;2023-07-02T02:27:35;22.44;78.74
68450;SHT30;67758;39.572;2.652;2023-07-02T02:30:01;22.53;78.54
68450;SHT30;67758;39.572;2.652;2023-07-02T02:32:27;22.58;78.50
68450;SHT30;67758;39.572;2.652;2023-07-02T02:34:53;22.53;78.68
68450;SHT30;67758;39.572;2.652;2023-07-02T02:37:21;22.55;78.74
68450;SHT30;67758;39.572;2.652;2023-07-02T02:39:47;22.48;78.93
68450;SHT30;67758;39.572;2.652;2023-07-02T02:42:13;22.46;78.85
68450;SHT30;67758;39.572;2.652;2023-07-02T02:44:41;22.57;78.70
68450;SHT30;67758;39.572;2.652;2023-07-02T02:47:07;22.47;78.71
68450;SHT30;67758;39.572;2.652;2023-07-02T02:49:33;22.41;78.92
68450;SHT30;67758;39.572;2.652;2023-07-02T02:51:59;22.57;78.57
68450;SHT30;67758;39.572;2.652;2023-07-02T02:54:25;22.63;78.44
68450;SHT30;67758;39.572;2.652;2023-07-02T02:56:51;22.55;78.28
68450;SHT30;67758;39.572;2.652;2023-07-02T02:59:17;22.43;78.34
68450;SHT30;67758;39.572;2.652;2023-07-02T03:01:42;22.43;78.52
68450;SHT30;67758;39.572;2.652;2023-07-02T03:04:08;22.37;78.64
68450;SHT30;67758;39.572;2.652;2023-07-02T03:06:34;22.27;78.43
68450;SHT30;67758;39.572;2.652;2023-07-02T03:08:59;22.21;78.25
68450;SHT30;67758;39.572;2.652;2023-07-02T03:11:25;22.26;78.00
68450;SHT30;67758;39.572;2.652;2023-07-02T03:13:51;22.18;77.21
68450;SHT30;67758;39.572;2.652;2023-07-02T03:16:16;22.18;77.24
68450;SHT30;67758;39.572;2.652;2023-07-02T03:18:42;22.13;77.13
68450;SHT30;67758;39.572;2.652;2023-07-02T03:21:09;22.09;76.92
68450;SHT30;67758;39.572;2.652;2023-07-02T03:23:35;22.02;77.14
68450;SHT30;67758;39.572;2.652;2023-07-02T03:26:01;22.00;77.14
68450;SHT30;67758;39.572;2.652;2023-07-02T03:28:26;22.00;77.49
68450;SHT30;67758;39.572;2.652;2023-07-02T03:30:53;22.04;77.59
68450;SHT30;67758;39.572;2.652;2023-07-02T03:33:19;22.03;77.88
68450;SHT30;67758;39.572;2.652;2023-07-02T03:35:44;21.99;78.38
68450;SHT30;67758;39.572;2.652;2023-07-02T03:38:10;21.92;78.74
68450;SHT30;67758;39.572;2.652;2023-07-02T03:40:36;21.89;78.86
68450;SHT30;67758;39.572;2.652;2023-07-02T03:43:01;21.95;78.89
68450;SHT30;67758;39.572;2.652;2023-07-02T03:45:27;21.95;78.91
68450;SHT30;67758;39.572;2.652;2023-07-02T03:47:53;21.90;79.40
68450;SHT30;67758;39.572;2.652;2023-07-02T03:50:19;21.88;79.62
68450;SHT30;67758;39.572;2.652;2023-07-02T03:52:44;21.92;79.68
68450;SHT30;67758;39.572;2.652;2023-07-02T03:55:10;21.89;79.88
68450;SHT30;67758;39.572;2.652;2023-07-02T03:57:37;21.86;80.06
68450;SHT30;67758;39.572;2.652;2023-07-02T04:00:03;21.85;80.41
68450;SHT30;67758;39.572;2.652;2023-07-02T04:02:40;21.81;80.87
68450;SHT30;67758;39.572;2.652;2023-07-02T04:05:09;21.88;80.83
68450;SHT30;67758;39.572;2.652;2023-07-02T04:07:36;21.82;81.26
68450;SHT30;67758;39.572;2.652;2023-07-02T04:19:26;21.92;81.33
68450;SHT30;67758;39.572;2.652;2023-07-02T04:21:57;22.03;81.01
68450;SHT30;67758;39.572;2.652;2023-07-02T04:24:23;21.97;80.86
68450;SHT30;67758;39.572;2.652;2023-07-02T04:26:48;21.95;80.84
68450;SHT30;67758;39.572;2.652;2023-07-02T04:29:14;21.96;80.68
68450;SHT30;67758;39.572;2.652;2023-07-02T04:31:40;21.96;80.61
68450;SHT30;67758;39.572;2.652;2023-07-02T04:34:06;21.97;80.27
68450;SHT30;67758;39.572;2.652;2023-07-02T04:36:32;21.97;80.31
68450;SHT30;67758;39.572;2.652;2023-07-02T04:38:57;21.97;80.24
68450;SHT30;67758;39.572;2.652;2023-07-02T04:41:23;21.96;80.39
68450;SHT30;67758;39.572;2.652;2023-07-02T04:43:49;21.96;80.31
68450;SHT30;67758;39.572;2.652;2023-07-02T04:46:15;21.95;80.22
68450;SHT30;67758;39.572;2.652;2023-07-02T04:48:43;21.93;79.98
68450;SHT30;67758;39.572;2.652;2023-07-02T04:51:14;21.90;80.07
68450;SHT30;67758;39.572;2.652;2023-07-02T04:53:39;22.02;80.02
68450;SHT30;67758;39.572;2.652;2023-07-02T04:56:05;21.99;79.87
68450;SHT30;67758;39.572;2.652;2023-07-02T04:58:31;21.96;80.57
68450;SHT30;67758;39.572;2.652;2023-07-02T05:00:57;21.92;80.89
68450;SHT30;67758;39.572;2.652;2023-07-02T05:03:22;21.90;81.03
68450;SHT30;67758;39.572;2.652;2023-07-02T05:05:48;21.88;81.02
68450;SHT30;67758;39.572;2.652;2023-07-02T05:08:14;21.89;81.06
68450;SHT30;67758;39.572;2.652;2023-07-02T05:10:40;21.93;81.08
68450;SHT30;67758;39.572;2.652;2023-07-02T05:13:08;21.96;81.08
68450;SHT30;67758;39.572;2.652;2023-07-02T05:15:34;22.02;80.94
68450;SHT30;67758;39.572;2.652;2023-07-02T05:18:00;22.00;80.96
68450;SHT30;67758;39.572;2.652;2023-07-02T05:20:26;22.02;81.01
68450;SHT30;67758;39.572;2.652;2023-07-02T05:22:52;22.03;81.25
68450;SHT30;67758;39.572;2.652;2023-07-02T05:25:17;22.04;81.43
68450;SHT30;67758;39.572;2.652;2023-07-02T05:27:44;22.12;81.14
68450;SHT30;67758;39.572;2.652;2023-07-02T05:30:11;22.18;81.04
68450;SHT30;67758;39.572;2.652;2023-07-02T05:32:36;22.26;80.88
68450;SHT30;67758;39.572;2.652;2023-07-02T05:35:05;22.36;80.79
68450;SHT30;67758;39.572;2.652;2023-07-02T05:37:30;22.37;80.81
68450;SHT30;67758;39.572;2.652;2023-07-02T05:39:56;22.47;80.99
68450;SHT30;67758;39.572;2.652;2023-07-02T05:42:23;22.54;80.75
68450;SHT30;67758;39.572;2.652;2023-07-02T05:44:50;22.60;81.09
68450;SHT30;67758;39.572;2.652;2023-07-02T05:47:15;22.61;80.81
68450;SHT30;67758;39.572;2.652;2023-07-02T05:49:42;22.69;80.72
68450;SHT30;67758;39.572;2.652;2023-07-02T05:52:08;22.77;80.72
68450;SHT30;67758;39.572;2.652;2023-07-02T05:54:40;22.81;80.67
68450;SHT30;67758;39.572;2.652;2023-07-02T05:57:06;22.85;80.38
68450;SHT30;67758;39.572;2.652;2023-07-02T05:59:32;22.94;79.79
68450;SHT30;67758;39.572;2.652;2023-07-02T06:01:57;22.96;79.52
68450;SHT30;67758;39.572;2.652;2023-07-02T06:04:23;22.99;79.42
68450;SHT30;67758;39.572;2.652;2023-07-02T06:06:49;23.04;79.25
68450;SHT30;67758;39.572;2.652;2023-07-02T06:09:15;23.02;79.26
68450;SHT30;67758;39.572;2.652;2023-07-02T06:11:40;23.02;79.40
68450;SHT30;67758;39.572;2.652;2023-07-02T06:14:07;23.08;79.30
68450;SHT30;67758;39.572;2.652;2023-07-02T06:16:33;23.16;79.16
68450;SHT30;67758;39.572;2.652;2023-07-02T06:18:59;23.23;78.78
68450;SHT30;67758;39.572;2.652;2023-07-02T06:21:28;23.26;78.76
68450;SHT30;67758;39.572;2.652;2023-07-02T06:23:56;23.38;78.40
68450;SHT30;67758;39.572;2.652;2023-07-02T06:26:27;23.50;78.01
68450;SHT30;67758;39.572;2.652;2023-07-02T06:28:53;23.63;77.64
68450;SHT30;67758;39.572;2.652;2023-07-02T06:31:18;23.62;77.58
68450;SHT30;67758;39.572;2.652;2023-07-02T06:33:44;23.66;77.77
68450;SHT30;67758;39.572;2.652;2023-07-02T06:36:15;23.87;77.68
68450;SHT30;67758;39.572;2.652;2023-07-02T06:38:45;24.01;77.64
68450;SHT30;67758;39.572;2.652;2023-07-02T06:41:14;24.11;78.05
68450;SHT30;67758;39.572;2.652;2023-07-02T06:43:47;24.11;78.57
68450;SHT30;67758;39.572;2.652;2023-07-02T06:46:13;24.16;78.22
68450;SHT30;67758;39.572;2.652;2023-07-02T06:48:44;24.17;78.66
68450;SHT30;67758;39.572;2.652;2023-07-02T06:51:10;24.22;78.74
68450;SHT30;67758;39.572;2.652;2023-07-02T06:53:50;24.35;78.45
68450;SHT30;67758;39.572;2.652;2023-07-02T06:56:19;24.52;78.99
68450;SHT30;67758;39.572;2.652;2023-07-02T06:58:59;24.59;78.41
68450;SHT30;67758;39.572;2.652;2023-07-02T07:01:47;24.61;78.34
68450;SHT30;67758;39.572;2.652;2023-07-02T07:04:26;24.65;78.41
68450;SHT30;67758;39.572;2.652;2023-07-02T07:07:18;24.67;78.12
68450;SHT30;67758;39.572;2.652;2023-07-02T07:09:57;24.71;78.37
68450;SHT30;67758;39.572;2.652;2023-07-02T07:12:35;24.71;78.15
68450;SHT30;67758;39.572;2.652;2023-07-02T07:15:23;24.69;78.12
68450;SHT30;67758;39.572;2.652;2023-07-02T07:18:02;24.72;78.99
68450;SHT30;67758;39.572;2.652;2023-07-02T07:20:31;24.68;78.74
68450;SHT30;67758;39.572;2.652;2023-07-02T07:22:57;24.69;79.05
68450;SHT30;67758;39.572;2.652;2023-07-02T07:25:23;24.76;78.93
68450;SHT30;67758;39.572;2.652;2023-07-02T07:27:50;24.82;78.63
68450;SHT30;67758;39.572;2.652;2023-07-02T07:30:18;24.78;79.00
68450;SHT30;67758;39.572;2.652;2023-07-02T07:32:51;24.83;78.84
68450;SHT30;67758;39.572;2.652;2023-07-02T07:35:17;24.89;78.95
68450;SHT30;67758;39.572;2.652;2023-07-02T07:37:43;24.93;78.88
68450;SHT30;67758;39.572;2.652;2023-07-02T07:40:10;24.99;78.94
68450;SHT30;67758;39.572;2.652;2023-07-02T07:42:36;25.02;79.10
68450;SHT30;67758;39.572;2.652;2023-07-02T07:45:05;25.08;79.12
68450;SHT30;67758;39.572;2.652;2023-07-02T07:47:31;25.15;79.12
68450;SHT30;67758;39.572;2.652;2023-07-02T07:49:58;25.22;79.04
68450;SHT30;67758;39.572;2.652;2023-07-02T07:52:23;25.23;79.01
68450;SHT30;67758;39.572;2.652;2023-07-02T07:54:49;25.29;79.25
68450;SHT30;67758;39.572;2.652;2023-07-02T07:57:15;25.34;79.44
68450;SHT30;67758;39.572;2.652;2023-07-02T07:59:40;25.36;79.60
68450;SHT30;67758;39.572;2.652;2023-07-02T08:02:06;25.37;79.85
68450;SHT30;67758;39.572;2.652;2023-07-02T08:04:32;25.40;80.01
68450;SHT30;67758;39.572;2.652;2023-07-02T08:06:57;25.39;80.57
68450;SHT30;67758;39.572;2.652;2023-07-02T08:09:24;25.34;80.58
68450;SHT30;67758;39.572;2.652;2023-07-02T08:11:50;25.39;80.61
68450;SHT30;67758;39.572;2.652;2023-07-02T08:14:19;25.49;80.62
68450;SHT30;67758;39.572;2.652;2023-07-02T08:16:44;25.42;81.49
68450;SHT30;67758;39.572;2.652;2023-07-02T08:19:11;25.43;81.50
68450;SHT30;67758;39.572;2.652;2023-07-02T08:21:37;25.51;81.35
68450;SHT30;67758;39.572;2.652;2023-07-02T08:24:03;25.56;81.24
68450;SHT30;67758;39.572;2.652;2023-07-02T08:26:29;25.56;81.74
68450;SHT30;67758;39.572;2.652;2023-07-02T08:28:57;25.66;81.64
68450;SHT30;67758;39.572;2.652;2023-07-02T08:31:24;25.71;81.28
68450;SHT30;67758;39.572;2.652;2023-07-02T08:33:50;25.71;81.40
68450;SHT30;67758;39.572;2.652;2023-07-02T08:36:17;25.80;81.32
68450;SHT30;67758;39.572;2.652;2023-07-02T08:38:44;25.80;81.06
68450;SHT30;67758;39.572;2.652;2023-07-02T08:41:10;25.77;81.36
68450;SHT30;67758;39.572;2.652;2023-07-02T08:43:36;25.91;81.09
68450;SHT30;67758;39.572;2.652;2023-07-02T08:46:03;26.01;80.69
68450;SHT30;67758;39.572;2.652;2023-07-02T08:48:29;26.12;80.33
68450;SHT30;67758;39.572;2.652;2023-07-02T08:50:56;26.15;81.07
68450;SHT30;67758;39.572;2.652;2023-07-02T08:53:23;26.09;81.00
68450;SHT30;67758;39.572;2.652;2023-07-02T08:55:55;26.15;80.53
68450;SHT30;67758;39.572;2.652;2023-07-02T08:58:27;26.32;80.40
68450;SHT30;67758;39.572;2.652;2023-07-02T09:01:08;26.36;79.26
68450;SHT30;67758;39.572;2.652;2023-07-02T09:03:37;26.45;79.06
68450;SHT30;67758;39.572;2.652;2023-07-02T09:06:06;26.59;79.25
68450;SHT30;67758;39.572;2.652;2023-07-02T09:08:32;26.65;79.48
68450;SHT30;67758;39.572;2.652;2023-07-02T09:11:14;26.72;79.57
68450;SHT30;67758;39.572;2.652;2023-07-02T09:13:49;26.72;79.64
68450;SHT30;67758;39.572;2.652;2023-07-02T09:16:23;26.65;79.26
68450;SHT30;67758;39.572;2.652;2023-07-02T09:19:05;26.71;79.23
68450;SHT30;67758;39.572;2.652;2023-07-02T09:21:46;26.83;78.90
68450;SHT30;67758;39.572;2.652;2023-07-02T09:24:14;26.85;78.53
68450;SHT30;67758;39.572;2.652;2023-07-02T09:26:46;26.85;79.03
68450;SHT30;67758;39.572;2.652;2023-07-02T09:29:12;26.86;78.29
68450;SHT30;67758;39.572;2.652;2023-07-02T09:31:48;27.04;78.21
68450;SHT30;67758;39.572;2.652;2023-07-02T09:34:14;27.04;78.10
68450;SHT30;67758;39.572;2.652;2023-07-02T09:36:40;27.02;78.58
68450;SHT30;67758;39.572;2.652;2023-07-02T09:39:19;26.97;78.54
68450;SHT30;67758;39.572;2.652;2023-07-02T09:41:47;27.13;78.48
68450;SHT30;67758;39.572;2.652;2023-07-02T09:44:15;27.17;78.00
68450;SHT30;67758;39.572;2.652;2023-07-02T09:46:56;27.24;77.43
68450;SHT30;67758;39.572;2.652;2023-07-02T09:49:24;27.30;76.86
68450;SHT30;67758;39.572;2.652;2023-07-02T09:51:50;27.20;77.41
68450;SHT30;67758;39.572;2.652;2023-07-02T09:54:16;27.36;77.31
68450;SHT30;67758;39.572;2.652;2023-07-02T09:56:45;27.44;76.67
68450;SHT30;67758;39.572;2.652;2023-07-02T09:59:11;27.51;76.78
68450;SHT30;67758;39.572;2.652;2023-07-02T10:01:36;27.58;76.75
68450;SHT30;67758;39.572;2.652;2023-07-02T10:04:17;27.57;76.10
68450;SHT30;67758;39.572;2.652;2023-07-02T10:06:51;27.80;75.65
68450;SHT30;67758;39.572;2.652;2023-07-02T10:09:18;27.78;75.73
68450;SHT30;67758;39.572;2.652;2023-07-02T10:11:45;27.68;76.49
68450;SHT30;67758;39.572;2.652;2023-07-02T10:14:11;27.77;76.16
68450;SHT30;67758;39.572;2.652;2023-07-02T10:16:50;27.98;75.39
68450;SHT30;67758;39.572;2.652;2023-07-02T10:19:16;28.10;75.01
68450;SHT30;67758;39.572;2.652;2023-07-02T10:21:45;28.23;75.05
68450;SHT30;67758;39.572;2.652;2023-07-02T10:24:13;29.34;72.05
68450;SHT30;67758;39.572;2.652;2023-07-02T10:27:01;30.27;68.98
68450;SHT30;67758;39.572;2.652;2023-07-02T10:29:29;30.59;68.01
68450;SHT30;67758;39.572;2.652;2023-07-02T10:31:56;30.70;67.75
68450;SHT30;67758;39.572;2.652;2023-07-02T10:34:33;31.02;66.14
68450;SHT30;67758;39.572;2.652;2023-07-02T10:37:04;31.22;65.71
68450;SHT30;67758;39.572;2.652;2023-07-02T10:39:30;31.32;65.30
68450;SHT30;67758;39.572;2.652;2023-07-02T10:42:10;31.75;64.54
68450;SHT30;67758;39.572;2.652;2023-07-02T10:44:47;31.69;64.24
68450;SHT30;67758;39.572;2.652;2023-07-02T10:47:14;32.34;62.93
68450;SHT30;67758;39.572;2.652;2023-07-02T10:49:40;32.24;62.82
68450;SHT30;67758;39.572;2.652;2023-07-02T10:52:06;32.07;63.05
68450;SHT30;67758;39.572;2.652;2023-07-02T10:54:48;31.94;63.26
68450;SHT30;67758;39.572;2.652;2023-07-02T10:57:18;31.80;63.86
68450;SHT30;67758;39.572;2.652;2023-07-02T10:59:47;31.41;64.63
68450;SHT30;67758;39.572;2.652;2023-07-02T11:02:15;31.80;63.51
68450;SHT30;67758;39.572;2.652;2023-07-02T11:04:41;31.72;63.36
68450;SHT30;67758;39.572;2.652;2023-07-02T11:07:07;31.73;63.36
68450;SHT30;67758;39.572;2.652;2023-07-02T11:09:32;31.85;62.90
68450;SHT30;67758;39.572;2.652;2023-07-02T11:11:59;32.21;62.20
68450;SHT30;67758;39.572;2.652;2023-07-02T11:14:33;32.36;61.97
68450;SHT30;67758;39.572;2.652;2023-07-02T11:17:02;32.51;61.74
68450;SHT30;67758;39.572;2.652;2023-07-02T11:19:29;32.38;61.89
68450;SHT30;67758;39.572;2.652;2023-07-02T11:21:56;32.41;61.88
68450;SHT30;67758;39.572;2.652;2023-07-02T11:26:57;33.05;60.02
68450;SHT30;67758;39.572;2.652;2023-07-02T11:29:23;32.44;61.46
68450;SHT30;67758;39.572;2.652;2023-07-02T11:31:50;32.37;61.84
68450;SHT30;67758;39.572;2.652;2023-07-02T11:34:17;32.44;61.34
68450;SHT30;67758;39.572;2.652;2023-07-02T11:36:43;32.98;60.15
68450;SHT30;67758;39.572;2.652;2023-07-02T11:39:09;32.88;60.27
68450;SHT30;67758;39.572;2.652;2023-07-02T11:41:39;32.99;59.73
68450;SHT30;67758;39.572;2.652;2023-07-02T11:44:05;33.67;58.64
68450;SHT30;67758;39.572;2.652;2023-07-02T11:46:31;33.06;59.70
68450;SHT30;67758;39.572;2.652;2023-07-02T11:48:57;33.29;59.59
68450;SHT30;67758;39.572;2.652;2023-07-02T11:51:23;32.82;60.49
68450;SHT30;67758;39.572;2.652;2023-07-02T11:53:48;32.74;60.22
68450;SHT30;67758;39.572;2.652;2023-07-02T11:56:14;32.40;61.11
68450;SHT30;67758;39.572;2.652;2023-07-02T11:58:41;32.47;60.97
68450;SHT30;67758;39.572;2.652;2023-07-02T12:01:07;32.50;60.84
68450;SHT30;67758;39.572;2.652;2023-07-02T12:03:33;32.43;61.32
68450;SHT30;67758;39.572;2.652;2023-07-02T12:05:59;32.89;59.97
68450;SHT30;67758;39.572;2.652;2023-07-02T12:08:24;32.63;60.52
68450;SHT30;67758;39.572;2.652;2023-07-02T12:10:50;32.74;60.63
68450;SHT30;67758;39.572;2.652;2023-07-02T12:13:17;32.95;60.25
68450;SHT30;67758;39.572;2.652;2023-07-02T12:15:42;32.24;61.46
68450;SHT30;67758;39.572;2.652;2023-07-02T12:18:09;32.45;60.92
68450;SHT30;67758;39.572;2.652;2023-07-02T12:20:35;32.30;61.22
68450;SHT30;67758;39.572;2.652;2023-07-02T12:23:03;32.54;60.66
68450;SHT30;67758;39.572;2.652;2023-07-02T12:25:28;32.51;60.78
68450;SHT30;67758;39.572;2.652;2023-07-02T12:27:54;32.64;60.41
68450;SHT30;67758;39.572;2.652;2023-07-02T12:30:21;32.20;61.19
68450;SHT30;67758;39.572;2.652;2023-07-02T12:32:47;32.67;60.81
68450;SHT30;67758;39.572;2.652;2023-07-02T12:35:12;32.67;60.78
68450;SHT30;67758;39.572;2.652;2023-07-02T12:37:45;32.26;61.47
68450;SHT30;67758;39.572;2.652;2023-07-02T12:40:12;32.31;61.44
68450;SHT30;67758;39.572;2.652;2023-07-02T12:42:40;32.17;62.06
68450;SHT30;67758;39.572;2.652;2023-07-02T12:45:08;32.16;61.78
68450;SHT30;67758;39.572;2.652;2023-07-02T12:47:34;32.14;61.62
68450;SHT30;67758;39.572;2.652;2023-07-02T12:49:59;32.33;61.50
68450;SHT30;67758;39.572;2.652;2023-07-02T12:52:25;32.48;60.97
68450;SHT30;67758;39.572;2.652;2023-07-02T12:54:51;32.50;60.65
68450;SHT30;67758;39.572;2.652;2023-07-02T12:57:17;32.45;60.07
68450;SHT30;67758;39.572;2.652;2023-07-02T12:59:43;32.21;60.74
68450;SHT30;67758;39.572;2.652;2023-07-02T13:02:10;32.21;60.15
68450;SHT30;67758;39.572;2.652;2023-07-02T13:04:36;32.75;59.21
68450;SHT30;67758;39.572;2.652;2023-07-02T13:07:02;31.97;60.92
68450;SHT30;67758;39.572;2.652;2023-07-02T13:09:28;31.86;61.72
68450;SHT30;67758;39.572;2.652;2023-07-02T13:11:53;32.33;60.43
68450;SHT30;67758;39.572;2.652;2023-07-02T13:14:19;32.14;60.50
68450;SHT30;67758;39.572;2.652;2023-07-02T13:16:46;32.37;59.92
68450;SHT30;67758;39.572;2.652;2023-07-02T13:19:12;32.44;60.07
68450;SHT30;67758;39.572;2.652;2023-07-02T13:21:38;31.98;60.45
68450;SHT30;67758;39.572;2.652;2023-07-02T13:24:04;32.26;60.27
68450;SHT30;67758;39.572;2.652;2023-07-02T13:26:30;32.30;59.77
68450;SHT30;67758;39.572;2.652;2023-07-02T13:28:55;32.27;60.18
68450;SHT30;67758;39.572;2.652;2023-07-02T13:31:21;32.26;59.93
68450;SHT30;67758;39.572;2.652;2023-07-02T13:33:47;32.53;58.78
68450;SHT30;67758;39.572;2.652;2023-07-02T13:36:16;32.71;58.72
68450;SHT30;67758;39.572;2.652;2023-07-02T13:38:42;32.75;58.67
68450;SHT30;67758;39.572;2.652;2023-07-02T13:41:08;33.01;58.05
68450;SHT30;67758;39.572;2.652;2023-07-02T13:43:34;32.68;58.18
68450;SHT30;67758;39.572;2.652;2023-07-02T13:45:59;32.64;58.21
68450;SHT30;67758;39.572;2.652;2023-07-02T13:48:25;32.63;58.79
68450;SHT30;67758;39.572;2.652;2023-07-02T13:50:51;32.09;60.19
68450;SHT30;67758;39.572;2.652;2023-07-02T13:53:16;32.31;59.84
68450;SHT30;67758;39.572;2.652;2023-07-02T13:55:42;32.34;59.39
68450;SHT30;67758;39.572;2.652;2023-07-02T13:58:08;32.02;60.64
68450;SHT30;67758;39.572;2.652;2023-07-02T14:00:34;31.96;60.87
68450;SHT30;67758;39.572;2.652;2023-07-02T14:02:59;31.49;61.90
68450;SHT30;67758;39.572;2.652;2023-07-02T14:05:25;30.92;63.54
68450;SHT30;67758;39.572;2.652;2023-07-02T14:07:51;31.11;63.02
68450;SHT30;67758;39.572;2.652;2023-07-02T14:10:17;31.26;63.18
68450;SHT30;67758;39.572;2.652;2023-07-02T14:12:44;31.85;61.47
68450;SHT30;67758;39.572;2.652;2023-07-02T14:15:10;32.50;59.52
68450;SHT30;67758;39.572;2.652;2023-07-02T14:17:36;32.47;59.74
68450;SHT30;67758;39.572;2.652;2023-07-02T14:20:03;32.38;59.70
68450;SHT30;67758;39.572;2.652;2023-07-02T14:22:29;32.61;59.15
68450;SHT30;67758;39.572;2.652;2023-07-02T14:24:56;33.18;57.77
68450;SHT30;67758;39.572;2.652;2023-07-02T14:27:22;33.11;58.06
68450;SHT30;67758;39.572;2.652;2023-07-02T14:29:47;32.55;58.57
68450;SHT30;67758;39.572;2.652;2023-07-02T14:32:14;32.84;58.41
68450;SHT30;67758;39.572;2.652;2023-07-02T14:34:40;32.60;59.06
68450;SHT30;67758;39.572;2.652;2023-07-02T14:37:06;32.95;58.19
68450;SHT30;67758;39.572;2.652;2023-07-02T14:39:32;32.87;58.53
68450;SHT30;67758;39.572;2.652;2023-07-02T14:41:59;32.96;58.48
68450;SHT30;67758;39.572;2.652;2023-07-02T14:44:25;33.09;58.31
68450;SHT30;67758;39.572;2.652;2023-07-02T14:46:51;33.50;57.04
68450;SHT30;67758;39.572;2.652;2023-07-02T14:49:17;33.56;56.91
68450;SHT30;67758;39.572;2.652;2023-07-02T14:51:42;33.08;57.80
68450;SHT30;67758;39.572;2.652;2023-07-02T14:54:09;33.33;57.84
68450;SHT30;67758;39.572;2.652;2023-07-02T14:56:35;32.99;58.60
68450;SHT30;67758;39.572;2.652;2023-07-02T14:59:04;33.11;58.44
68450;SHT30;67758;39.572;2.652;2023-07-02T15:01:33;32.67;59.41
68450;SHT30;67758;39.572;2.652;2023-07-02T15:03:59;32.89;58.77
68450;SHT30;67758;39.572;2.652;2023-07-02T15:06:25;32.79;59.24
68450;SHT30;67758;39.572;2.652;2023-07-02T15:08:51;32.64;60.22
68450;SHT30;67758;39.572;2.652;2023-07-02T15:11:18;32.55;60.20
68450;SHT30;67758;39.572;2.652;2023-07-02T15:13:49;33.42;58.57
68450;SHT30;67758;39.572;2.652;2023-07-02T15:16:15;33.67;57.49
68450;SHT30;67758;39.572;2.652;2023-07-02T15:18:42;33.83;57.09
68450;SHT30;67758;39.572;2.652;2023-07-02T15:21:08;33.72;57.56
68450;SHT30;67758;39.572;2.652;2023-07-02T15:23:34;33.70;57.82
68450;SHT30;67758;39.572;2.652;2023-07-02T15:26:02;33.15;59.29
68450;SHT30;67758;39.572;2.652;2023-07-02T15:28:29;33.05;59.79
68450;SHT30;67758;39.572;2.652;2023-07-02T15:31:10;33.06;59.56
68450;SHT30;67758;39.572;2.652;2023-07-02T15:33:37;33.50;58.27
68450;SHT30;67758;39.572;2.652;2023-07-02T15:36:06;33.28;59.18
68450;SHT30;67758;39.572;2.652;2023-07-02T15:38:34;33.05;60.26
68450;SHT30;67758;39.572;2.652;2023-07-02T15:41:19;32.98;60.19
68450;SHT30;67758;39.572;2.652;2023-07-02T15:43:46;33.45;58.72
68450;SHT30;67758;39.572;2.652;2023-07-02T15:46:15;33.42;59.03
68450;SHT30;67758;39.572;2.652;2023-07-02T15:48:41;33.23;57.52
68450;SHT30;67758;39.572;2.652;2023-07-02T15:51:08;32.81;59.27
68450;SHT30;67758;39.572;2.652;2023-07-02T15:53:38;32.77;59.32
68450;SHT30;67758;39.572;2.652;2023-07-02T15:56:06;32.70;59.47